Time;durP1;ratioP1;P1;durP2;ratioP2;P2;SDS_P1;SDS_P2;PMS_P1;PMS_P2;Temp;Humidity;BMP_temperature;BMP_pressure;BME280_temperature;BME280_humidity;BME280_pressure;Samples;Min_cycle;Max_cycle;Signal;HPM_P1;HPM_P2
2024/03/01 00:01:31;;;;;;;13.05;8.68;;;;;;;8.53;37.49;99953.22;5045644;28;20529;-86
2024/03/01 00:04:00;;;;;;;13.52;8.45;;;;;;;8.53;37.85;99945.03;5051001;28;20057;-82
2024/03/01 00:06:28;;;;;;;14.40;8.20;;;;;;;8.55;37.63;99939.44;5044728;28;20067;-83
2024/03/01 00:08:58;;;;;;;13.45;8.15;;;;;;;8.54;37.87;99932.28;5074478;28;20449;-85
2024/03/01 00:11:26;;;;;;;11.88;7.60;;;;;;;8.55;37.84;99936.72;5090666;28;20036;-84
2024/03/01 00:13:55;;;;;;;12.63;8.25;;;;;;;8.58;37.86;99931.00;5076203;28;20496;-84
2024/03/01 00:16:23;;;;;;;14.20;8.77;;;;;;;8.57;37.72;99935.59;5069226;28;20036;-86
2024/03/01 00:18:53;;;;;;;13.00;7.78;;;;;;;8.56;37.69;99922.94;5072146;28;20036;-85
2024/03/01 00:21:21;;;;;;;12.82;8.32;;;;;;;8.57;37.90;99932.00;5062804;28;20048;-85
2024/03/01 00:23:49;;;;;;;14.20;8.15;;;;;;;8.57;38.08;99921.09;5066459;28;20036;-86
2024/03/01 00:26:17;;;;;;;13.32;8.52;;;;;;;8.58;38.00;99922.81;5061420;28;20059;-85
2024/03/01 00:28:44;;;;;;;14.70;9.25;;;;;;;8.56;38.00;99916.63;5063027;28;20519;-85
2024/03/01 00:31:12;;;;;;;13.70;8.10;;;;;;;8.57;38.23;99918.34;5064275;28;20063;-85
2024/03/01 00:33:42;;;;;;;13.63;8.55;;;;;;;8.57;38.20;99911.03;5078603;28;20036;-85
2024/03/01 00:36:11;;;;;;;14.60;9.07;;;;;;;8.57;38.10;99910.19;5064787;28;20044;-86
2024/03/01 00:38:39;;;;;;;14.50;8.73;;;;;;;8.55;38.17;99909.44;5081315;28;20036;-86
2024/03/01 00:41:07;;;;;;;15.20;9.35;;;;;;;8.55;38.21;99909.44;5064265;28;20053;-84
2024/03/01 00:43:36;;;;;;;14.68;9.40;;;;;;;8.53;38.27;99911.44;5076031;28;20104;-85
2024/03/01 00:46:04;;;;;;;16.75;9.82;;;;;;;8.53;38.21;99915.03;5083299;28;20328;-87
2024/03/01 00:48:34;;;;;;;14.15;8.70;;;;;;;8.53;38.03;99912.31;5087444;28;20115;-85
2024/03/01 00:51:02;;;;;;;13.43;9.10;;;;;;;8.52;38.06;99912.44;5063170;28;20290;-85
2024/03/01 00:53:31;;;;;;;13.43;8.88;;;;;;;8.54;38.05;99907.72;5092502;28;20043;-84
2024/03/01 00:55:59;;;;;;;13.27;8.75;;;;;;;8.50;38.25;99906.31;5058922;28;20515;-85
2024/03/01 00:58:27;;;;;;;14.80;9.30;;;;;;;8.52;38.55;99909.72;5070415;28;20060;-85
2024/03/01 01:00:56;;;;;;;14.55;9.15;;;;;;;8.51;38.53;99908.00;5087776;28;20063;-86
2024/03/01 01:03:24;;;;;;;14.98;9.05;;;;;;;8.49;38.66;99902.72;5056780;28;20507;-86
2024/03/01 01:05:52;;;;;;;14.68;9.10;;;;;;;8.48;38.43;99909.16;5084882;28;20105;-86
2024/03/01 01:08:20;;;;;;;14.95;9.00;;;;;;;8.49;38.45;99910.03;5061414;28;20609;-86
2024/03/01 01:10:49;;;;;;;15.80;9.50;;;;;;;8.48;38.38;99905.59;5061636;28;20043;-87
2024/03/01 01:13:19;;;;;;;13.57;8.90;;;;;;;8.47;38.46;99917.50;5082713;28;20036;-86
2024/03/01 01:15:47;;;;;;;14.45;8.65;;;;;;;8.46;38.16;99905.72;5060843;28;20028;-87
2024/03/01 01:18:16;;;;;;;13.63;9.13;;;;;;;8.46;38.70;99911.19;5067391;28;20053;-85
2024/03/01 01:20:45;;;;;;;13.32;8.82;;;;;;;8.46;38.25;99903.00;5067439;28;20048;-85
2024/03/01 01:23:13;;;;;;;13.50;8.70;;;;;;;8.45;38.43;99897.69;5066332;28;20041;-84
2024/03/01 01:25:42;;;;;;;15.13;8.73;;;;;;;8.43;38.54;99889.63;5067956;28;20066;-85
2024/03/01 01:28:12;;;;;;;15.15;8.30;;;;;;;8.42;38.49;99896.13;5080448;28;20033;-85
2024/03/01 01:30:40;;;;;;;13.70;8.88;;;;;;;8.43;38.75;99883.31;5086293;28;20044;-82
2024/03/01 01:33:08;;;;;;;13.40;8.73;;;;;;;8.40;38.37;99880.91;5084309;28;20044;-87
2024/03/01 01:35:36;;;;;;;13.27;8.63;;;;;;;8.41;38.85;99891.66;5066911;28;20052;-86
2024/03/01 01:38:04;;;;;;;12.82;8.02;;;;;;;8.40;38.40;99889.94;5080423;28;20499;-86
2024/03/01 01:40:32;;;;;;;15.90;8.98;;;;;;;8.40;38.77;99876.31;5062222;28;20043;-86
2024/03/01 01:43:03;;;;;;;13.68;8.82;;;;;;;8.40;38.74;99872.72;5066387;28;20044;-85
2024/03/01 01:45:33;;;;;;;12.68;8.98;;;;;;;8.40;38.59;99870.84;5068227;28;20637;-85
2024/03/01 01:48:02;;;;;;;14.93;9.50;;;;;;;8.38;38.61;99872.00;5090190;28;20032;-86
2024/03/01 01:50:32;;;;;;;13.20;8.90;;;;;;;8.38;38.89;99874.72;5072378;28;20115;-86
2024/03/01 01:53:02;;;;;;;15.02;10.07;;;;;;;8.37;38.73;99875.72;5075085;28;20044;-86
2024/03/01 01:55:38;;;;;;;12.93;8.70;;;;;;;8.35;39.16;99873.13;5071734;28;20048;-87
2024/03/01 01:58:07;;;;;;;14.20;8.77;;;;;;;8.35;39.00;99873.13;5065090;28;20048;-86
2024/03/01 02:00:39;;;;;;;14.13;9.25;;;;;;;8.34;38.81;99869.56;5066276;28;20094;-86
2024/03/01 02:03:07;;;;;;;14.65;9.40;;;;;;;8.32;38.78;99865.28;5104009;28;20040;-86
2024/03/01 02:05:36;;;;;;;13.23;8.90;;;;;;;8.33;38.89;99869.72;5088069;28;20032;-86
2024/03/01 02:08:05;;;;;;;14.15;9.25;;;;;;;8.34;39.00;99866.00;5094293;28;20070;-86
2024/03/01 02:10:33;;;;;;;14.60;8.98;;;;;;;8.31;38.98;99850.78;5107113;28;20081;-85
2024/03/01 02:13:02;;;;;;;14.40;9.23;;;;;;;8.30;39.28;99853.63;5108394;28;20038;-86
2024/03/01 02:15:30;;;;;;;14.95;9.20;;;;;;;8.30;39.24;99848.19;5086825;28;20511;-85
2024/03/01 02:18:01;;;;;;;13.88;8.70;;;;;;;8.31;39.52;99839.88;5070697;28;20040;-86
2024/03/01 02:20:29;;;;;;;13.77;8.80;;;;;;;8.29;39.28;99843.75;5071007;28;20040;-86
2024/03/01 02:23:01;;;;;;;14.85;9.55;;;;;;;8.31;39.79;99834.41;5069985;28;20070;-86
2024/03/01 02:25:31;;;;;;;13.50;8.73;;;;;;;8.29;39.67;99827.38;5065522;28;20040;-86
2024/03/01 02:27:59;;;;;;;15.27;9.52;;;;;;;8.28;39.63;99831.97;5066826;28;20279;-86
2024/03/01 02:30:27;;;;;;;14.13;8.98;;;;;;;8.28;39.87;99837.41;5072984;28;20446;-86
2024/03/01 02:32:56;;;;;;;16.75;9.23;;;;;;;8.26;39.65;99833.09;5071316;28;20484;-86
2024/03/01 02:35:24;;;;;;;14.77;9.63;;;;;;;8.26;39.75;99827.66;5067032;28;20066;-85
2024/03/01 02:37:52;;;;;;;15.82;9.30;;;;;;;8.24;39.76;99829.69;5074299;28;20051;-85
2024/03/01 02:40:22;;;;;;;15.02;8.93;;;;;;;8.22;39.64;99824.38;5062496;28;20044;-85
2024/03/01 02:42:51;;;;;;;13.30;9.02;;;;;;;8.22;39.69;99818.94;5081273;28;20071;-85
2024/03/01 02:45:19;;;;;;;13.63;8.57;;;;;;;8.20;39.92;99818.19;5063693;28;20040;-84
2024/03/01 02:47:47;;;;;;;14.48;8.95;;;;;;;8.23;40.10;99817.06;5090282;28;20044;-85
2024/03/01 02:50:16;;;;;;;14.45;8.43;;;;;;;8.23;39.87;99819.78;5069626;28;20036;-86
2024/03/01 02:52:45;;;;;;;14.60;8.77;;;;;;;8.19;39.85;99805.56;5080548;28;20033;-85
2024/03/01 02:55:19;;;;;;;14.73;9.27;;;;;;;8.17;39.86;99813.06;5070164;28;20035;-86
2024/03/01 02:57:48;;;;;;;15.73;9.48;;;;;;;8.14;39.71;99816.06;5059522;28;20044;-85
2024/03/01 03:00:19;;;;;;;14.13;9.15;;;;;;;8.18;40.15;99820.22;5087243;28;20419;-85
2024/03/01 03:02:47;;;;;;;15.70;9.77;;;;;;;8.16;40.02;99819.50;5092854;28;20033;-86
2024/03/01 03:05:15;;;;;;;14.88;9.27;;;;;;;8.15;39.76;99820.50;5082745;28;20458;-86
2024/03/01 03:07:43;;;;;;;15.02;9.40;;;;;;;8.17;39.92;99828.56;5062023;28;20052;-86
2024/03/01 03:10:11;;;;;;;13.90;9.13;;;;;;;8.15;39.94;99831.41;5064189;28;20055;-85
2024/03/01 03:12:39;;;;;;;14.05;9.00;;;;;;;8.14;40.04;99821.53;5070618;28;20074;-85
2024/03/01 03:15:08;;;;;;;13.90;9.52;;;;;;;8.14;40.12;99826.09;5070717;28;20064;-85
2024/03/01 03:17:38;;;;;;;14.23;8.63;;;;;;;8.15;39.82;99831.41;5061836;28;20052;-86
2024/03/01 03:20:10;;;;;;;14.10;8.90;;;;;;;8.14;39.97;99840.59;5063028;28;20048;-86
2024/03/01 03:22:40;;;;;;;14.13;8.98;;;;;;;8.09;40.55;99829.25;5085141;28;20048;-86
2024/03/01 03:25:09;;;;;;;14.32;9.52;;;;;;;8.11;40.53;99826.34;5086153;28;20523;-86
2024/03/01 03:27:37;;;;;;;13.98;9.00;;;;;;;8.11;40.28;99813.59;5076744;28;20067;-86
2024/03/01 03:30:07;;;;;;;12.95;9.05;;;;;;;8.12;40.23;99825.34;5064511;28;20044;-85
2024/03/01 03:32:35;;;;;;;13.90;9.23;;;;;;;8.11;40.31;99821.75;5067760;28;20063;-85
2024/03/01 03:35:05;;;;;;;15.23;9.18;;;;;;;8.12;40.23;99820.75;5077058;28;20534;-86
2024/03/01 03:37:33;;;;;;;13.43;8.77;;;;;;;8.11;40.66;99818.16;5090512;28;20404;-86
2024/03/01 03:40:13;;;;;;;13.40;8.63;;;;;;;8.09;40.75;99812.88;5081903;28;20058;-86
2024/03/01 03:42:42;;;;;;;13.23;8.45;;;;;;;8.07;40.57;99809.44;5072234;28;20044;-86
2024/03/01 03:45:10;;;;;;;12.20;8.18;;;;;;;8.09;40.92;99812.03;5064057;28;20128;-86
2024/03/01 03:47:38;;;;;;;13.15;8.48;;;;;;;8.06;41.13;99815.91;5086512;28;20085;-86
2024/03/01 03:50:09;;;;;;;13.63;8.25;;;;;;;8.10;40.81;99830.06;5071749;28;20044;-86
2024/03/01 03:52:38;;;;;;;12.30;8.13;;;;;;;8.08;40.77;99827.50;5081608;28;20052;-86
2024/03/01 03:55:07;;;;;;;11.68;7.38;;;;;;;8.09;41.03;99834.69;5072656;28;20044;-86
2024/03/01 03:57:36;;;;;;;12.32;7.65;;;;;;;8.10;41.10;99830.06;5090111;28;20044;-87
2024/03/01 04:00:09;;;;;;;14.40;8.88;;;;;;;8.10;41.29;99821.91;5059405;28;20446;-86
2024/03/01 04:02:38;;;;;;;13.45;7.97;;;;;;;8.10;41.03;99827.34;5070369;28;20053;-86
2024/03/01 04:05:08;;;;;;;14.10;8.35;;;;;;;8.09;41.20;99817.47;5059843;28;20043;-85
2024/03/01 04:07:36;;;;;;;12.57;7.55;;;;;;;8.11;41.54;99820.91;5065572;28;20052;-85
2024/03/01 04:10:06;;;;;;;13.95;8.00;;;;;;;8.12;41.64;99820.75;5091606;28;20040;-86
2024/03/01 04:12:36;;;;;;;11.77;7.45;;;;;;;8.12;41.39;99830.78;5063166;28;20132;-86
2024/03/01 04:15:05;;;;;;;13.02;7.40;;;;;;;8.13;41.23;99817.06;5068200;28;20040;-85
2024/03/01 04:17:34;;;;;;;11.77;7.22;;;;;;;8.15;41.61;99825.09;5083901;28;20081;-85
2024/03/01 04:20:05;;;;;;;9.88;6.60;;;;;;;8.14;41.84;99828.84;5070310;28;20074;-85
2024/03/01 04:22:35;;;;;;;11.85;7.25;;;;;;;8.18;41.79;99836.56;5088224;28;20095;-85
2024/03/01 04:25:05;;;;;;;11.43;7.32;;;;;;;8.18;41.55;99828.38;5067854;28;20048;-86
2024/03/01 04:27:34;;;;;;;11.30;6.85;;;;;;;8.17;41.54;99839.44;5064400;28;20064;-86
2024/03/01 04:30:01;;;;;;;11.70;6.78;;;;;;;8.22;41.55;99831.69;5086700;28;20051;-85
2024/03/01 04:32:33;;;;;;;11.63;6.93;;;;;;;8.23;42.01;99825.25;5062797;28;20036;-86
2024/03/01 04:35:01;;;;;;;12.63;7.65;;;;;;;8.23;41.74;99827.97;5063557;28;20039;-86
2024/03/01 04:37:29;;;;;;;11.38;7.78;;;;;;;8.23;41.84;99825.25;5070313;28;20435;-86
2024/03/01 04:39:58;;;;;;;11.85;7.68;;;;;;;8.26;41.69;99830.38;5064026;28;20041;-85
2024/03/01 04:42:27;;;;;;;10.65;6.82;;;;;;;8.24;41.81;99818.78;5049688;28;20051;-86
2024/03/01 04:44:55;;;;;;;11.20;6.75;;;;;;;8.23;41.95;99819.78;5067722;28;20047;-85
2024/03/01 04:47:23;;;;;;;11.00;6.57;;;;;;;8.24;42.26;99816.94;5067454;28;20166;-86
2024/03/01 04:49:51;;;;;;;10.32;6.60;;;;;;;8.27;42.28;99823.94;5084533;28;20043;-86
2024/03/01 04:52:19;;;;;;;11.10;6.65;;;;;;;8.29;41.86;99828.25;5073088;28;20044;-86
2024/03/01 04:54:47;;;;;;;10.82;6.93;;;;;;;8.28;42.33;99825.66;5068374;28;20448;-86
2024/03/01 04:57:17;;;;;;;10.32;6.75;;;;;;;8.28;42.45;99818.34;5085761;28;20038;-85
2024/03/01 04:59:47;;;;;;;11.35;6.95;;;;;;;8.30;42.02;99838.16;5066015;28;20044;-86
2024/03/01 05:02:18;;;;;;;10.65;7.05;;;;;;;8.33;42.64;99831.56;5063283;28;20040;-85
2024/03/01 05:04:47;;;;;;;10.95;6.93;;;;;;;8.26;42.65;99823.06;5062961;28;20518;-85
2024/03/01 05:07:16;;;;;;;10.45;7.03;;;;;;;8.30;42.49;99820.94;5065214;28;20040;-86
2024/03/01 05:09:44;;;;;;;10.05;6.65;;;;;;;8.32;42.54;99827.97;5067390;28;20054;-85
2024/03/01 05:12:15;;;;;;;11.18;6.57;;;;;;;8.33;42.72;99826.09;5082037;28;20040;-87
2024/03/01 05:14:45;;;;;;;10.48;7.00;;;;;;;8.34;42.90;99822.38;5068712;28;20093;-85
2024/03/01 05:17:13;;;;;;;11.73;6.75;;;;;;;8.30;42.57;99824.53;5066912;28;20037;-86
2024/03/01 05:19:41;;;;;;;11.70;7.22;;;;;;;8.32;42.62;99833.41;5065322;28;20043;-85
2024/03/01 05:22:12;;;;;;;11.15;7.07;;;;;;;8.35;42.69;99834.97;5082547;28;20037;-86
2024/03/01 05:24:40;;;;;;;11.88;7.55;;;;;;;8.33;42.85;99835.16;5069610;28;20036;-85
2024/03/01 05:27:12;;;;;;;11.13;6.57;;;;;;;8.33;43.10;99829.69;5061829;28;20122;-85
2024/03/01 05:29:41;;;;;;;11.73;7.13;;;;;;;8.35;42.90;99832.25;5064703;28;20066;-84
2024/03/01 05:32:10;;;;;;;10.85;6.55;;;;;;;8.37;42.76;99840.28;5065511;28;20052;-85
2024/03/01 05:34:38;;;;;;;10.73;6.88;;;;;;;8.37;42.85;99846.59;5069999;28;20036;-85
2024/03/01 05:37:07;;;;;;;12.43;8.00;;;;;;;8.38;42.94;99851.06;5063929;28;20464;-84
2024/03/01 05:39:35;;;;;;;11.00;6.75;;;;;;;8.41;43.06;99858.97;5090025;28;20514;-84
2024/03/01 05:42:06;;;;;;;9.68;6.30;;;;;;;8.40;42.89;99851.78;5084102;28;20036;-84
2024/03/01 05:44:34;;;;;;;9.88;6.45;;;;;;;8.41;42.92;99861.69;5087136;28;20098;-85
2024/03/01 05:47:03;;;;;;;10.18;6.72;;;;;;;8.43;42.98;99861.50;5068384;28;20044;-85
2024/03/01 05:49:32;;;;;;;11.65;7.22;;;;;;;8.45;43.22;99870.41;5083117;28;20451;-85
2024/03/01 05:52:01;;;;;;;10.50;6.53;;;;;;;8.43;43.21;99858.78;5087750;28;20590;-85
2024/03/01 05:54:30;;;;;;;10.50;7.10;;;;;;;8.44;43.07;99869.56;5062566;28;20047;-84
2024/03/01 05:56:58;;;;;;;10.85;6.63;;;;;;;8.45;43.18;99875.88;5062372;28;20090;-84
2024/03/01 05:59:26;;;;;;;11.63;7.20;;;;;;;8.48;43.33;99894.69;5060292;28;20051;-84
2024/03/01 06:01:55;;;;;;;10.80;7.05;;;;;;;8.47;42.98;99882.91;5061756;28;20102;-86
2024/03/01 06:04:23;;;;;;;10.00;6.55;;;;;;;8.50;43.00;99889.94;5063482;28;20040;-85
2024/03/01 06:06:53;;;;;;;11.05;6.93;;;;;;;8.51;43.53;99897.09;5065201;28;20048;-85
2024/03/01 06:09:23;;;;;;;11.32;6.90;;;;;;;8.50;43.21;99904.44;5059521;28;20223;-86
2024/03/01 06:11:51;;;;;;;9.60;6.70;;;;;;;8.51;43.34;99903.41;5060094;28;20050;-86
2024/03/01 06:14:19;;;;;;;10.75;6.95;;;;;;;8.53;43.26;99917.78;5071643;28;20059;-85
2024/03/01 06:16:47;;;;;;;9.65;6.32;;;;;;;8.54;43.08;99924.94;5075014;28;20121;-86
2024/03/01 06:19:17;;;;;;;11.55;6.80;;;;;;;8.54;43.08;99935.84;5064921;28;20641;-86
2024/03/01 06:21:45;;;;;;;9.68;5.88;;;;;;;8.55;43.64;99931.28;5066923;28;20519;-86
2024/03/01 06:24:15;;;;;;;7.88;4.90;;;;;;;8.56;43.70;99936.59;5067502;28;20135;-86
2024/03/01 06:26:43;;;;;;;6.72;4.20;;;;;;;8.55;43.43;99939.44;5072762;28;20088;-86
2024/03/01 06:29:11;;;;;;;5.60;3.50;;;;;;;8.57;43.56;99948.34;5085346;28;20105;-85
2024/03/01 06:31:39;;;;;;;6.10;3.70;;;;;;;8.58;43.37;99950.09;5069361;28;20052;-85
2024/03/01 06:34:07;;;;;;;6.10;3.60;;;;;;;8.57;43.42;99954.66;5071818;28;20375;-85
2024/03/01 06:36:35;;;;;;;6.32;3.00;;;;;;;8.58;43.74;99958.25;5081254;28;20055;-86
2024/03/01 06:39:04;;;;;;;4.95;2.88;;;;;;;8.60;43.55;99965.28;5074876;28;20044;-85
2024/03/01 06:41:33;;;;;;;3.90;2.65;;;;;;;8.60;43.74;99964.41;5074116;28;20165;-85
2024/03/01 06:44:01;;;;;;;4.35;2.60;;;;;;;8.60;43.67;99964.41;5070620;28;20301;-85
2024/03/01 06:46:29;;;;;;;3.17;2.22;;;;;;;8.60;43.54;99981.63;5078060;28;20052;-85
2024/03/01 06:48:58;;;;;;;3.53;2.20;;;;;;;8.61;43.99;99979.78;5074398;28;20048;-85
2024/03/01 06:51:26;;;;;;;3.22;2.10;;;;;;;8.60;44.16;99989.81;5086510;28;20078;-85
2024/03/01 06:53:54;;;;;;;3.58;2.22;;;;;;;8.59;44.15;99998.13;5073889;28;20055;-85
2024/03/01 06:56:23;;;;;;;3.30;2.20;;;;;;;8.58;44.10;99999.19;5091301;28;20098;-85
2024/03/01 06:58:52;;;;;;;3.15;2.28;;;;;;;8.58;44.09;99993.72;5066149;28;20040;-86
2024/03/01 07:01:20;;;;;;;3.05;2.20;;;;;;;8.55;44.30;100003.03;5073737;28;20047;-86
2024/03/01 07:03:48;;;;;;;3.90;2.47;;;;;;;8.56;44.40;100009.34;5075730;28;20055;-86
2024/03/01 07:06:16;;;;;;;3.38;2.30;;;;;;;8.53;43.97;100004.19;5055572;28;20059;-88
2024/03/01 07:08:51;;;;;;;3.90;2.53;;;;;;;8.55;44.30;100013.09;5074776;28;20055;-88
2024/03/01 07:20:34;;;;;;;3.17;2.00;;;;;;;8.40;44.38;100012.63;5036910;28;20139;-87
2024/03/01 07:23:12;;;;;;;3.30;2.13;;;;;;;8.37;43.89;100026.53;5071062;28;20040;-87
2024/03/01 07:26:30;;;;;;;3.50;2.22;;;;;;;8.37;43.89;100032.00;5071839;28;20056;-88
2024/03/01 09:59:46;;;;;;;;;;;;;;;8.76;44.71;100068.38;5078829;28;20051;-86
2024/03/01 10:02:31;;;;;;;3.60;1.90;;;;;;;9.14;44.26;100075.72;5095148;28;19924;-86
2024/03/01 10:05:22;;;;;;;4.07;1.90;;;;;;;9.30;43.66;100073.28;5095243;28;20044;-86
2024/03/01 10:07:59;;;;;;;3.10;2.13;;;;;;;9.41;43.53;100070.38;5087048;28;20110;-85
2024/03/01 10:10:39;;;;;;;3.08;1.52;;;;;;;9.55;43.30;100065.50;5096695;28;20078;-84
2024/03/01 10:13:18;;;;;;;3.95;1.60;;;;;;;9.62;43.49;100056.56;5097375;28;20069;-87
2024/03/01 10:15:57;;;;;;;3.08;1.48;;;;;;;9.77;43.00;100073.34;5093093;28;20043;-86
2024/03/01 10:18:43;;;;;;;3.33;1.60;;;;;;;9.86;42.33;100069.72;5087436;28;20032;-88
2024/03/01 10:21:22;;;;;;;1.92;1.08;;;;;;;9.94;42.77;100064.38;5093120;28;20055;-88
2024/03/01 10:24:10;;;;;;;2.13;1.30;;;;;;;10.02;42.22;100059.00;5108683;28;20259;-87
2024/03/01 10:26:43;;;;;;;1.80;1.10;;;;;;;10.09;42.71;100062.84;5096241;28;20055;-83
2024/03/01 10:29:27;;;;;;;2.20;1.20;;;;;;;10.20;42.24;100068.16;5110947;28;20042;-86
2024/03/01 10:32:10;;;;;;;1.85;0.95;;;;;;;10.28;41.73;100070.13;5094910;28;20060;-87
2024/03/01 10:34:49;;;;;;;1.95;1.10;;;;;;;10.34;41.73;100069.50;5094161;28;20154;-84
2024/03/01 10:37:23;;;;;;;3.15;1.10;;;;;;;10.43;41.58;100062.25;5093157;28;20503;-85
2024/03/01 10:40:00;;;;;;;1.33;0.80;;;;;;;10.49;41.81;100069.84;5093263;28;20044;-86
2024/03/01 10:42:30;;;;;;;1.10;0.60;;;;;;;10.54;41.56;100068.44;5092358;28;20128;-87
2024/03/01 10:45:06;;;;;;;0.60;0.50;;;;;;;10.61;40.94;100060.47;5093726;28;20039;-86
2024/03/01 10:47:35;;;;;;;1.00;0.50;;;;;;;10.65;41.42;100058.28;5111193;28;20113;-87
2024/03/01 10:50:21;;;;;;;0.50;0.50;;;;;;;10.68;40.04;100055.22;5091250;28;20067;-86
2024/03/01 10:52:56;;;;;;;0.55;0.40;;;;;;;10.71;40.39;100043.97;5095162;28;20462;-84
2024/03/01 10:55:26;;;;;;;0.38;0.32;;;;;;;10.74;40.67;100043.66;5113965;27;20036;-88
2024/03/01 10:58:00;;;;;;;1.30;0.50;;;;;;;10.77;40.17;100051.56;5083249;28;20056;-87
2024/03/01 11:00:30;;;;;;;0.70;0.55;;;;;;;10.79;40.07;100042.19;5088454;28;20126;-85
2024/03/01 11:03:19;;;;;;;1.38;0.60;;;;;;;10.79;38.86;100039.44;5103777;28;20159;-86
2024/03/01 11:06:04;;;;;;;2.10;0.70;;;;;;;10.81;39.16;100034.66;5077730;28;20059;-85
2024/03/01 11:08:52;;;;;;;1.30;0.68;;;;;;;10.80;39.13;100023.88;5088503;28;20531;-83
2024/03/01 11:11:28;;;;;;;1.65;0.73;;;;;;;10.80;39.31;100029.38;5090290;28;20064;-86
2024/03/01 11:14:00;;;;;;;1.50;0.50;;;;;;;10.81;39.38;100017.41;5085291;28;20047;-84
2024/03/01 11:16:35;;;;;;;1.35;0.50;;;;;;;10.80;39.05;100024.75;5093535;28;20096;-85
2024/03/01 11:19:10;;;;;;;1.23;0.60;;;;;;;10.83;38.89;100018.94;5093145;28;20063;-84
2024/03/01 11:21:44;;;;;;;1.38;0.60;;;;;;;10.84;39.33;100003.38;5096469;28;20096;-86
2024/03/01 11:24:19;;;;;;;1.02;0.50;;;;;;;10.86;38.77;100012.31;5094782;28;20130;-84
2024/03/01 11:26:49;;;;;;;0.55;0.38;;;;;;;10.87;39.55;100020.38;5094705;28;20047;-84
2024/03/01 11:29:23;;;;;;;1.20;0.70;;;;;;;10.90;38.89;100008.22;5096073;28;20043;-84
2024/03/01 11:31:55;;;;;;;0.73;0.45;;;;;;;10.94;38.99;100012.38;5111382;27;20039;-85
2024/03/01 11:34:30;;;;;;;0.57;0.50;;;;;;;10.99;39.07;100005.41;5097799;28;20419;-84
2024/03/01 11:37:12;;;;;;;1.25;0.40;;;;;;;11.02;38.73;99993.28;5102163;28;20073;-83
2024/03/01 11:39:52;;;;;;;1.27;0.40;;;;;;;11.09;38.56;99993.50;5110766;28;20073;-81
2024/03/01 11:42:28;;;;;;;0.45;0.40;;;;;;;11.12;38.81;99984.97;5111201;28;20047;-85
2024/03/01 11:45:07;;;;;;;1.13;0.38;;;;;;;11.15;38.76;99976.44;5112221;28;20262;-83
2024/03/01 11:47:47;;;;;;;0.45;0.38;;;;;;;11.22;38.66;99980.28;5115975;28;20078;-82
2024/03/01 11:50:32;;;;;;;0.60;0.50;;;;;;;11.26;38.40;99977.03;5100759;28;20858;-83
2024/03/01 11:53:14;;;;;;;0.50;0.40;;;;;;;11.29;38.87;99960.28;5134223;27;20043;-84
2024/03/01 11:56:02;;;;;;;0.50;0.40;;;;;;;11.38;38.04;99957.63;5088230;28;20054;-84
2024/03/01 11:59:36;;;;;;;1.60;0.60;;;;;;;11.42;38.47;99956.25;5090206;28;20038;-85
2024/03/01 12:02:27;;;;;;;0.47;0.40;;;;;;;11.47;38.17;99952.00;5093930;28;20089;-86
2024/03/01 12:05:11;;;;;;;0.82;0.47;;;;;;;11.51;38.18;99947.94;5092231;28;20036;-85
2024/03/01 12:07:58;;;;;;;1.43;0.60;;;;;;;11.56;38.07;99953.75;5094798;28;20472;-86
2024/03/01 12:10:41;;;;;;;1.20;0.50;;;;;;;11.60;37.78;99943.34;5088138;28;20411;-84
2024/03/01 12:13:16;;;;;;;0.70;0.60;;;;;;;11.64;38.03;99950.25;5092976;28;20105;-86
2024/03/01 12:15:54;;;;;;;0.63;0.40;;;;;;;11.66;37.96;99943.56;5092182;28;20075;-85
2024/03/01 12:18:31;;;;;;;0.65;0.43;;;;;;;11.67;37.77;99928.00;5091637;28;20096;-85
2024/03/01 12:21:21;;;;;;;1.13;0.45;;;;;;;11.68;37.76;99947.03;5092124;28;20054;-86
2024/03/01 12:24:04;;;;;;;0.40;0.40;;;;;;;11.69;37.58;99932.31;5090420;28;20051;-86
2024/03/01 12:26:42;;;;;;;1.05;0.82;;;;;;;11.69;37.82;99939.66;5090120;28;20044;-85
2024/03/01 12:29:20;;;;;;;1.42;0.60;;;;;;;11.73;37.48;99952.00;5093519;28;20040;-85
2024/03/01 12:32:11;;;;;;;2.35;0.68;;;;;;;11.76;36.94;99928.91;5086706;28;20040;-85
2024/03/01 12:34:52;;;;;;;1.35;0.77;;;;;;;11.73;37.65;99936.41;5112823;28;20039;-87
2024/03/01 12:37:32;;;;;;;1.23;0.80;;;;;;;11.74;37.20;99929.06;5094879;28;20468;-85
2024/03/01 12:40:15;;;;;;;1.20;0.80;;;;;;;11.76;37.51;99931.63;5081660;28;20044;-87
2024/03/01 12:43:07;;;;;;;1.15;0.63;;;;;;;11.75;36.83;99925.28;5086194;27;20055;-86
2024/03/01 12:46:03;;;;;;;1.15;0.77;;;;;;;11.76;36.48;99928.91;5104394;27;20070;-85
2024/03/01 12:48:45;;;;;;;0.80;0.60;;;;;;;11.74;36.75;99916.22;5095866;28;20089;-86
2024/03/01 12:51:17;;;;;;;1.25;0.70;;;;;;;11.72;37.39;99928.34;5096079;28;20063;-85
2024/03/01 12:54:04;;;;;;;1.83;0.90;;;;;;;11.75;36.82;99919.81;5091378;28;20055;-85
2024/03/01 12:56:50;;;;;;;1.65;0.80;;;;;;;11.77;36.57;99920.50;5093468;28;20044;-86
2024/03/01 12:59:36;;;;;;;1.85;0.90;;;;;;;11.79;36.96;99921.22;5095586;28;20057;-86
2024/03/01 13:02:37;;;;;;;2.22;1.08;;;;;;;11.80;36.96;99920.16;5110428;28;20073;-86
2024/03/01 13:05:23;;;;;;;1.63;0.70;;;;;;;11.83;36.66;99924.47;5063919;28;20074;-86
2024/03/01 13:07:55;;;;;;;2.33;1.05;;;;;;;11.85;36.85;99919.69;5092079;28;20048;-84
2024/03/01 13:10:26;;;;;;;2.08;0.98;;;;;;;11.84;37.07;99910.59;5084892;28;20044;-86
2024/03/01 13:12:58;;;;;;;2.45;1.00;;;;;;;11.89;36.91;99926.53;5086659;28;20040;-84
2024/03/01 13:15:35;;;;;;;2.78;0.90;;;;;;;11.89;36.27;99932.03;5092566;28;20032;-85
2024/03/01 13:18:08;;;;;;;1.98;1.00;;;;;;;11.87;36.85;99921.25;5088895;28;20127;-87
2024/03/01 13:20:51;;;;;;;1.67;1.00;;;;;;;11.88;35.68;99931.19;5086522;28;20055;-86
2024/03/01 13:23:35;;;;;;;1.17;0.90;;;;;;;11.85;36.05;99928.78;5086652;28;20054;-86
2024/03/01 13:26:21;;;;;;;1.70;0.90;;;;;;;11.88;36.19;99931.19;5097160;28;20047;-85
2024/03/01 13:28:58;;;;;;;1.80;1.00;;;;;;;11.85;36.47;99922.44;5094635;28;20062;-86
2024/03/01 13:31:39;;;;;;;1.83;1.00;;;;;;;11.89;35.99;99921.91;5090688;28;20300;-86
2024/03/01 13:34:09;;;;;;;0.98;0.80;;;;;;;11.90;37.02;99939.22;5106794;28;20511;-86
2024/03/01 13:36:41;;;;;;;1.88;1.02;;;;;;;11.91;36.26;99927.25;5096216;28;20079;-87
2024/03/01 13:39:20;;;;;;;3.35;1.20;;;;;;;11.90;36.09;99922.78;5097217;28;20043;-86
2024/03/01 13:42:00;;;;;;;2.33;1.38;;;;;;;11.88;35.64;99928.44;5111740;28;20437;-86
2024/03/01 13:44:32;;;;;;;2.97;1.20;;;;;;;11.90;36.32;99914.53;5087165;28;20407;-86
2024/03/01 13:47:07;;;;;;;;;;;;;;;11.61;36.87;99917.69;5094839;28;20040;-86
2024/03/01 13:49:38;;;;;;;1.98;1.20;;;;;;;11.81;36.31;99905.44;5066936;28;19983;-86
2024/03/01 13:55:21;;;;;;;;;;;;;;;;;;;;;
2024/03/01 13:57:58;;;;;;;2.33;1.20;;;;;;;11.80;35.94;99889.19;5096349;28;20043;-87
2024/03/01 14:00:26;;;;;;;1.98;1.13;;;;;;;11.76;36.28;99883.16;5099377;28;20048;-85
2024/03/01 14:02:55;;;;;;;2.20;1.40;;;;;;;11.73;35.89;99869.78;5088758;28;20089;-87
2024/03/01 14:05:28;;;;;;;2.70;1.20;;;;;;;11.71;35.33;99866.34;5114363;28;20040;-87
2024/03/01 14:08:00;;;;;;;2.45;1.23;;;;;;;11.68;35.64;99877.63;5091088;28;20066;-85
2024/03/01 14:10:29;;;;;;;2.00;1.08;;;;;;;11.61;35.87;99869.22;5098353;28;20055;-86
2024/03/01 14:12:59;;;;;;;1.80;1.40;;;;;;;11.59;35.87;99862.16;5101324;28;20042;-86
2024/03/01 14:15:27;;;;;;;2.30;1.10;;;;;;;11.56;35.65;99865.22;5088642;28;20632;-86
2024/03/01 14:17:56;;;;;;;2.30;1.20;;;;;;;11.51;35.72;99857.50;5089219;28;20064;-87
2024/03/01 14:20:27;;;;;;;2.08;1.27;;;;;;;11.51;35.51;99867.59;5094709;28;20266;-86
2024/03/01 14:22:55;;;;;;;1.52;0.90;;;;;;;11.44;35.67;99863.81;5091970;28;20070;-87
2024/03/01 14:25:24;;;;;;;2.22;1.15;;;;;;;11.42;35.40;99871.31;5084663;28;20083;-87
2024/03/01 14:27:55;;;;;;;2.28;1.00;;;;;;;11.40;35.46;99885.19;5090066;28;20070;-87
2024/03/01 14:30:27;;;;;;;2.15;0.93;;;;;;;11.38;35.31;99880.91;5104085;28;20044;-87
2024/03/01 14:33:08;;;;;;;1.70;0.90;;;;;;;11.34;35.42;99877.63;5099617;28;20044;-87
2024/03/01 14:35:38;;;;;;;1.35;0.90;;;;;;;11.30;35.70;99868.88;5099246;28;20126;-86
2024/03/01 14:38:15;;;;;;;2.13;0.95;;;;;;;11.30;34.46;99855.19;5095046;28;20043;-85
2024/03/01 14:40:54;;;;;;;1.88;1.10;;;;;;;11.27;34.54;99869.19;5091276;28;20040;-85
2024/03/01 14:43:23;;;;;;;2.15;1.08;;;;;;;11.22;35.28;99874.31;5099647;28;20047;-86